Regional Weather

 

KCRX - Corinth, Mississippi, USA
Distance from station: SW 29mi, 47km
Updated: Thu, 24-Sep-2020 8:35am CDT
Light drizzle, Overcast
Light drizzle, Overcast
 Wind from NE
Wind: NE 7 mph , 11 km/h
Temperature: 61°F , 16°C
Dew Point: 57°F , 14°C
Humidity: 88%
Barometer: 29.92 inHg , 1013.2 hPa
Summary: Light Drizzle
Clouds: Overcast
Visibility: 10 miles , 16 km
Cloud details: Overcast 700 ft
2020/09/24 13:35 KCRX 241335Z AUTO 05006KT 10SM -DZ OVC007 16/14 A2992 RMK AO2
KMKL - Jackson, Tennessee, USA
Distance from station: NW 46mi, 73km
Updated: Thu, 24-Sep-2020 7:53am CDT
Overcast
Overcast
 Wind from E
Wind: E 6 mph , 9 km/h
Temperature: 57°F , 14°C
Dew Point: 55°F , 13°C
Humidity: 94%
Barometer: 29.95 inHg , 1014.2 hPa
Clouds: Overcast
Visibility: 10 miles , 16 km
Cloud details: Overcast 500 ft
2020/09/24 12:53 KMKL 241253Z 08005KT 10SM OVC005 14/13 A2995 RMK AO2 RAE08 SLP141 T01440133 PNO $
 
KMSL - Muscle Shoal, Alabama, USA
Distance from station: SE 49mi, 79km
Updated: Thu, 24-Sep-2020 7:53am CDT
Light rain, Mostly cloudy
Light rain, Mostly cloudy
 Wind from E
Wind: E 8 mph , 13 km/h
Temperature: 61°F , 16°C
Dew Point: 57°F , 14°C
Humidity: 88%
Barometer: 29.94 inHg , 1013.9 hPa
Summary: Light rain
Clouds: Mostly cloudy
Visibility: 10 miles , 16 km
Cloud details: Mostly cloudy 800 ft
2020/09/24 12:53 KMSL 241253Z AUTO 08007KT 10SM -RA BKN008 16/14 A2994 RMK AO2 SLP135 T01560139 PNO $
KTUP - Tupelo, Mississippi, USA
Distance from station: SSW 72mi, 117km
Updated: Thu, 24-Sep-2020 8:37am CDT
Light rain, Mist, Overcast
Light rain, Mist, Overcast
 Wind from ENE
Wind: ENE 10 mph , 17 km/h
Temperature: 63°F , 17°C
Dew Point: 61°F , 16°C
Humidity: 94%
Barometer: 29.88 inHg , 1011.9 hPa
Summary: Light rain, Mist
Clouds: Overcast
Visibility: 5 miles , 8 km
Cloud details: Partly cloudy 800 ft
Mostly cloudy 4200 ft
Overcast 6500 ft
2020/09/24 13:37 KTUP 241337Z 06009KT 5SM -RA BR SCT008 BKN042 OVC065 17/16 A2988 RMK AO2 P0005 T01720156
 
KHSV - Huntsville, Alabama, USA
Distance from station: ESE 92mi, 148km
Updated: Thu, 24-Sep-2020 7:53am CDT
Light rain, Overcast
Light rain, Overcast
 Wind from ESE
Wind: ESE 8 mph , 13 km/h
Temperature: 57°F , 14°C
Dew Point: 57°F , 14°C
Humidity: 100%
Barometer: 29.98 inHg , 1015.2 hPa
Summary: Light rain
Clouds: Overcast
Visibility: 8 miles , 13 km
Cloud details: Mostly cloudy 7000 ft
Mostly cloudy 9000 ft
Overcast 12000 ft
2020/09/24 12:53 KHSV 241253Z 11007KT 8SM -RA BKN070 BKN090 OVC120 14/14 A2998 RMK AO2 SLP149 P0004 T01440139 $
KBNA - Nashville, TN, USA
Distance from station: NE 97mi, 157km
Updated: Thu, 24-Sep-2020 8:38am CDT
Overcast
Overcast
 Wind from SE
Wind: SE 7 mph , 11 km/h
Temperature: 61°F , 16°C
Dew Point: 57°F , 14°C
Humidity: 88%
Barometer: 30.03 inHg , 1016.9 hPa
Clouds: Overcast
Visibility: 9 miles , 14 km
Cloud details: Mostly cloudy 1000 ft
Mostly cloudy 3800 ft
Overcast 5000 ft
2020/09/24 13:38 KBNA 241338Z 14006KT 9SM BKN010 BKN038 OVC050 16/14 A3003 RMK AO2 T01610139
 
KMEM - Memphis, Tennessee, USA
Distance from station: W 99mi, 159km
Updated: Thu, 24-Sep-2020 8:37am CDT
Light drizzle, Mist, Overcast
Light drizzle, Mist, Overcast
 Wind from NE
Wind: NE 10 mph , 17 km/h
Temperature: 61°F , 16°C
Dew Point: 59°F , 15°C
Humidity: 94%
Barometer: 29.92 inHg , 1013.2 hPa
Summary: Light drizzle, Mist
Clouds: Overcast
Visibility: 3 miles , 5 km
Cloud details: Mostly cloudy 500 ft
Mostly cloudy 900 ft
Overcast 2000 ft
2020/09/24 13:37 KMEM 241337Z 04009KT 3SM -DZ BR BKN005 BKN009 OVC020 16/15 A2992 RMK AO2 RAB1259E03DZB03 P0003 T01560150
KCKV - Clarksville, TN, USA
Distance from station: NNE 99mi, 159km
Updated: Thu, 24-Sep-2020 7:52am CDT
Mist, Overcast
Mist, Overcast
 Wind from E
Wind: E 6 mph , 9 km/h
Temperature: 61°F , 16°C
Dew Point: 61°F , 16°C
Humidity: 100%
Barometer: 29.99 inHg , 1015.6 hPa
Summary: Mist
Clouds: Overcast
Visibility: 4 miles , 6 km
Cloud details: Mostly cloudy 4100 ft
Overcast 8500 ft
2020/09/24 12:52 KCKV 241252Z AUTO 10005KT 4SM BR BKN041 OVC085 16/16 A2999 RMK AO2 SLP154 T01610156
 
KCHA - Chattanooga, TN, USA
Distance from station: E 165mi, 265km
Updated: Thu, 24-Sep-2020 8:42am CDT
Light rain, Mist, Mostly cloudy
Light rain, Mist, Mostly cloudy
 Wind from NNE
Wind: NNE 5 mph , 7 km/h
Temperature: 63°F , 17°C
Dew Point: 61°F , 16°C
Humidity: 94%
Barometer: 30.06 inHg , 1017.9 hPa
Summary: Light rain, Mist
Clouds: Mostly cloudy
Visibility: 5 miles , 8 km
Cloud details: Few Clouds 700 ft
Partly cloudy 3200 ft
Mostly cloudy 6000 ft
2020/09/24 13:42 KCHA 241342Z 02004KT 5SM -RA BR FEW007 SCT032 BKN060 17/16 A3006 RMK AO2 P0002 T01720156
KTYS - Knoxville, TN, USA
Distance from station: E 234mi, 377km
Updated: Thu, 24-Sep-2020 7:53am CDT
Light rain, Overcast
Light rain, Overcast
 Wind from NNE
Wind: NNE 9 mph , 15 km/h
Temperature: 59°F , 15°C
Dew Point: 57°F , 14°C
Humidity: 94%
Barometer: 30.06 inHg , 1017.9 hPa
Summary: Light rain
Clouds: Overcast
Visibility: 7 miles , 11 km
Cloud details: Few Clouds 400 ft
Partly cloudy 5000 ft
Mostly cloudy 11000 ft
Overcast 20000 ft
2020/09/24 12:53 KTYS 241253Z 03008KT 7SM -RA FEW004 SCT050 BKN110 OVC200 15/14 A3006 RMK AO2 RAB01 SLP172 P0004 T01500144

Refresh Page for latest data.